Time;durP1;ratioP1;P1;durP2;ratioP2;P2;SDS_P1;SDS_P2;PMS_P1;PMS_P2;Temp;Humidity;BMP_temperature;BMP_pressure;BME280_temperature;BME280_humidity;BME280_pressure;Samples;Min_cycle;Max_cycle;Signal;HPM_P1;HPM_P2
2021/03/11 00:00:18;;;;;;;27.75;19.00;;;6.40;99.90;;;;;;5100894;28;21006;-68
2021/03/11 00:02:43;;;;;;;26.10;19.63;;;6.40;99.90;;;;;;5098152;28;20108;-68
2021/03/11 00:05:13;;;;;;;24.52;18.08;;;6.50;99.90;;;;;;5095908;28;20127;-68
2021/03/11 00:07:41;;;;;;;26.85;17.70;;;6.40;99.90;;;;;;5098534;28;20052;-68
2021/03/11 00:10:10;;;;;;;24.90;17.40;;;6.50;99.90;;;;;;5095481;28;20046;-68
2021/03/11 00:12:43;;;;;;;22.00;16.70;;;6.50;99.90;;;;;;5096906;28;20043;-68
2021/03/11 00:15:18;;;;;;;23.80;17.27;;;6.50;99.90;;;;;;5079252;28;20035;-68
2021/03/11 00:17:45;;;;;;;20.70;17.08;;;6.50;99.90;;;;;;5108903;28;20031;-68
2021/03/11 00:20:16;;;;;;;22.67;17.15;;;6.50;99.90;;;;;;5098115;28;20051;-68
2021/03/11 00:22:42;;;;;;;21.10;16.23;;;6.50;99.90;;;;;;5107949;28;20044;-68
2021/03/11 00:25:10;;;;;;;22.60;15.77;;;6.50;99.90;;;;;;5104041;28;20032;-68
2021/03/11 00:27:36;;;;;;;21.10;15.80;;;6.60;99.90;;;;;;5109650;28;20034;-68
2021/03/11 00:30:04;;;;;;;20.90;16.48;;;6.60;99.90;;;;;;5110271;28;20040;-68
2021/03/11 00:32:29;;;;;;;22.85;17.48;;;6.60;99.90;;;;;;5109154;28;20888;-68
2021/03/11 00:34:55;;;;;;;23.45;16.17;;;6.60;99.90;;;;;;5099437;28;20044;-68
2021/03/11 00:37:21;;;;;;;24.58;16.15;;;6.50;99.90;;;;;;5098641;28;20040;-68
2021/03/11 00:39:46;;;;;;;24.05;16.35;;;6.60;99.90;;;;;;5103505;28;20039;-68
2021/03/11 00:42:12;;;;;;;24.50;18.70;;;6.60;99.90;;;;;;5102610;28;20124;-68
2021/03/11 00:44:38;;;;;;;23.88;17.92;;;6.60;99.90;;;;;;5081724;28;20585;-68
2021/03/11 00:47:07;;;;;;;23.65;17.67;;;6.60;99.90;;;;;;5108582;28;20085;-68
2021/03/11 00:49:34;;;;;;;23.98;17.65;;;6.50;99.90;;;;;;5104206;28;20139;-68
2021/03/11 00:52:01;;;;;;;23.08;17.35;;;6.60;99.90;;;;;;5082578;28;537016;-68
2021/03/11 00:54:27;;;;;;;26.90;17.45;;;6.50;99.90;;;;;;5104706;28;20039;-68
2021/03/11 00:56:53;;;;;;;28.20;16.75;;;6.50;99.90;;;;;;5105960;28;20039;-68
2021/03/11 00:59:19;;;;;;;23.45;17.63;;;6.50;99.90;;;;;;5101911;28;20035;-68
2021/03/11 01:01:45;;;;;;;23.05;17.17;;;6.50;99.90;;;;;;5104155;28;20046;-68
2021/03/11 01:04:12;;;;;;;25.70;17.45;;;6.60;99.90;;;;;;5111897;28;20039;-69
2021/03/11 01:06:38;;;;;;;22.65;16.52;;;6.60;99.90;;;;;;5105784;28;20398;-68
2021/03/11 01:09:05;;;;;;;21.83;16.17;;;6.60;99.90;;;;;;5108706;28;20996;-68
2021/03/11 01:11:31;;;;;;;24.42;16.88;;;6.60;99.90;;;;;;5106749;28;20040;-68
2021/03/11 01:13:57;;;;;;;21.63;16.52;;;6.60;99.90;;;;;;5102925;28;20043;-68
2021/03/11 01:16:23;;;;;;;24.67;17.63;;;6.60;99.90;;;;;;5109980;28;20397;-68
2021/03/11 01:18:49;;;;;;;25.08;16.90;;;6.70;99.90;;;;;;5107433;28;20032;-68
2021/03/11 01:21:16;;;;;;;25.55;17.90;;;6.60;99.90;;;;;;5102637;28;20114;-68
2021/03/11 01:23:42;;;;;;;22.90;16.48;;;6.60;99.90;;;;;;5105606;28;20039;-68
2021/03/11 01:26:08;;;;;;;23.73;17.98;;;6.70;99.90;;;;;;5107291;28;20032;-68
2021/03/11 01:28:34;;;;;;;22.65;16.83;;;6.70;99.90;;;;;;5101529;28;20063;-68
2021/03/11 01:31:00;;;;;;;22.77;16.63;;;6.70;99.90;;;;;;5105611;28;20569;-68
2021/03/11 01:33:25;;;;;;;23.67;17.23;;;6.70;99.90;;;;;;5100343;28;20039;-68
2021/03/11 01:35:51;;;;;;;24.95;18.33;;;6.70;99.90;;;;;;5108669;28;20038;-68
2021/03/11 01:38:17;;;;;;;26.80;17.63;;;6.70;99.90;;;;;;5107089;28;20063;-68
2021/03/11 01:40:43;;;;;;;25.25;18.10;;;6.70;99.90;;;;;;5109242;28;20108;-68
2021/03/11 01:43:08;;;;;;;26.10;18.23;;;6.70;99.90;;;;;;5103431;28;20036;-68
2021/03/11 01:45:34;;;;;;;30.00;18.05;;;6.70;99.90;;;;;;5105823;28;20042;-68
2021/03/11 01:48:00;;;;;;;25.17;17.73;;;6.70;99.90;;;;;;5096437;28;20047;-68
2021/03/11 01:50:26;;;;;;;25.80;18.08;;;6.80;99.90;;;;;;5108052;28;20031;-68
2021/03/11 01:52:51;;;;;;;26.30;18.35;;;6.70;99.90;;;;;;5109389;28;20046;-68
2021/03/11 01:55:18;;;;;;;30.10;19.00;;;6.70;99.90;;;;;;5106320;28;20035;-68
2021/03/11 01:57:46;;;;;;;30.25;19.65;;;6.70;99.90;;;;;;5108050;28;20489;-68
2021/03/11 02:00:13;;;;;;;27.58;18.92;;;6.70;99.90;;;;;;5106217;28;20031;-68
2021/03/11 02:02:44;;;;;;;25.45;17.55;;;6.70;99.90;;;;;;5102203;28;20035;-68
2021/03/11 02:05:12;;;;;;;29.55;17.02;;;6.80;99.90;;;;;;5105651;28;20132;-68
2021/03/11 02:07:39;;;;;;;26.90;18.15;;;6.70;99.90;;;;;;5103049;28;20058;-69
2021/03/11 02:10:07;;;;;;;27.15;18.13;;;6.80;99.90;;;;;;5087835;28;20493;-68
2021/03/11 02:13:01;;;;;;;24.95;17.35;;;6.70;99.90;;;;;;5108152;28;20123;-68
2021/03/11 02:15:48;;;;;;;24.73;17.90;;;6.80;99.90;;;;;;5101928;28;20074;-68
2021/03/11 02:18:45;;;;;;;23.27;17.30;;;6.80;99.90;;;;;;5100933;28;20139;-68
2021/03/11 02:21:11;;;;;;;26.80;17.35;;;6.80;99.90;;;;;;5103007;28;21036;-68
2021/03/11 02:23:58;;;;;;;23.25;16.65;;;6.80;99.90;;;;;;5101441;28;20038;-69
2021/03/11 02:26:43;;;;;;;26.10;16.27;;;6.80;99.90;;;;;;5101041;28;20043;-68
2021/03/11 02:29:13;;;;;;;24.25;16.42;;;6.80;99.90;;;;;;5102833;28;20131;-69
2021/03/11 02:31:40;;;;;;;23.65;16.25;;;6.80;99.90;;;;;;5102992;28;20063;-68
2021/03/11 02:34:12;;;;;;;25.65;16.60;;;6.80;99.90;;;;;;5107574;28;20063;-68
2021/03/11 02:36:39;;;;;;;23.40;17.02;;;6.80;99.90;;;;;;5107306;28;20096;-69
2021/03/11 02:39:08;;;;;;;24.17;16.30;;;6.80;99.90;;;;;;5107391;28;20040;-68
2021/03/11 02:41:36;;;;;;;23.00;16.15;;;6.80;99.90;;;;;;5108502;28;20070;-68
2021/03/11 02:44:02;;;;;;;25.88;16.80;;;6.80;99.90;;;;;;5103131;28;20469;-69
2021/03/11 02:46:28;;;;;;;20.60;14.93;;;6.90;99.90;;;;;;5106959;28;20119;-69
2021/03/11 02:48:54;;;;;;;18.25;13.75;;;6.90;99.90;;;;;;5104662;28;20118;-68
2021/03/11 02:51:21;;;;;;;20.23;13.75;;;6.90;99.90;;;;;;5101895;28;20043;-68
2021/03/11 02:53:48;;;;;;;19.70;14.20;;;6.90;99.90;;;;;;5105415;28;20398;-68
2021/03/11 02:56:15;;;;;;;21.92;13.95;;;6.90;99.90;;;;;;5100807;28;20119;-68
2021/03/11 02:58:42;;;;;;;20.75;15.23;;;6.90;99.90;;;;;;5103326;28;20031;-68
2021/03/11 03:01:10;;;;;;;19.98;13.88;;;6.90;99.90;;;;;;5107734;28;20123;-69
2021/03/11 03:03:37;;;;;;;20.80;14.25;;;6.90;99.90;;;;;;5102246;28;20035;-69
2021/03/11 03:06:04;;;;;;;18.80;13.30;;;6.90;99.90;;;;;;5101176;28;20067;-69
2021/03/11 03:08:30;;;;;;;17.20;13.00;;;6.90;99.90;;;;;;5088868;28;20039;-69
2021/03/11 03:10:58;;;;;;;19.20;13.52;;;6.90;99.90;;;;;;5101429;28;20040;-69
2021/03/11 03:13:25;;;;;;;18.13;12.90;;;6.90;99.90;;;;;;5106293;28;20107;-69
2021/03/11 03:15:54;;;;;;;15.38;11.32;;;7.00;99.90;;;;;;5106549;28;20438;-69
2021/03/11 03:18:21;;;;;;;15.77;11.93;;;6.90;99.90;;;;;;5106442;28;20036;-68
2021/03/11 03:20:47;;;;;;;16.02;11.68;;;7.00;99.90;;;;;;5107254;28;20037;-68
2021/03/11 03:23:14;;;;;;;15.10;11.25;;;7.00;99.90;;;;;;5105613;28;20608;-68
2021/03/11 03:25:39;;;;;;;16.25;11.55;;;7.00;99.90;;;;;;5101869;28;20040;-68
2021/03/11 03:28:06;;;;;;;13.98;11.52;;;7.00;99.90;;;;;;5103536;28;20040;-69
2021/03/11 03:30:31;;;;;;;15.05;11.02;;;7.00;99.90;;;;;;5105621;28;20066;-68
2021/03/11 03:32:57;;;;;;;14.05;11.00;;;7.00;99.90;;;;;;5104545;28;20043;-68
2021/03/11 03:35:23;;;;;;;14.70;11.10;;;7.10;99.90;;;;;;5102763;28;20063;-68
2021/03/11 03:37:50;;;;;;;12.90;10.30;;;7.00;99.90;;;;;;5102225;28;20426;-69
2021/03/11 03:40:18;;;;;;;13.93;10.80;;;7.00;99.90;;;;;;5103968;28;20785;-68
2021/03/11 03:42:52;;;;;;;15.20;11.23;;;7.10;99.90;;;;;;5106880;28;20398;-68
2021/03/11 03:45:27;;;;;;;14.98;11.70;;;7.10;99.90;;;;;;5109314;28;20393;-68
2021/03/11 03:47:56;;;;;;;13.57;10.77;;;7.10;99.90;;;;;;5102818;28;20049;-68
2021/03/11 03:50:24;;;;;;;13.00;10.35;;;7.10;99.90;;;;;;5112281;28;20058;-68
2021/03/11 03:52:52;;;;;;;15.77;12.25;;;7.20;99.90;;;;;;5105089;28;20036;-68
2021/03/11 03:55:19;;;;;;;14.32;11.30;;;7.20;99.90;;;;;;5111425;28;20542;-69
2021/03/11 03:57:54;;;;;;;15.85;12.50;;;7.20;99.90;;;;;;5106113;28;20115;-68
2021/03/11 04:00:22;;;;;;;13.52;10.85;;;7.20;99.90;;;;;;5105916;28;20031;-69
2021/03/11 04:02:52;;;;;;;15.85;11.45;;;7.20;99.90;;;;;;5105965;28;20051;-68
2021/03/11 04:05:19;;;;;;;13.32;11.73;;;7.30;99.90;;;;;;5108823;28;20043;-69
2021/03/11 04:07:46;;;;;;;14.38;11.32;;;7.30;99.90;;;;;;5100621;28;20044;-69
2021/03/11 04:10:12;;;;;;;14.23;11.10;;;7.30;99.90;;;;;;5111074;28;20043;-68
2021/03/11 04:12:40;;;;;;;15.63;11.93;;;7.30;99.90;;;;;;5108238;28;20047;-69
2021/03/11 04:15:07;;;;;;;13.05;11.25;;;7.30;99.90;;;;;;5110213;28;20531;-68
2021/03/11 04:17:34;;;;;;;12.77;10.57;;;7.40;99.90;;;;;;5110761;28;20060;-69
2021/03/11 04:20:03;;;;;;;13.23;10.48;;;7.40;99.90;;;;;;5107141;28;20382;-68
2021/03/11 04:22:31;;;;;;;13.70;9.20;;;7.40;99.90;;;;;;5099910;28;20138;-68
2021/03/11 04:24:57;;;;;;;14.07;9.98;;;7.50;99.90;;;;;;5110135;28;20114;-68
2021/03/11 04:27:23;;;;;;;14.05;10.30;;;7.50;99.90;;;;;;5107087;28;20186;-68
2021/03/11 04:29:50;;;;;;;10.25;9.00;;;7.50;99.90;;;;;;5107946;28;20043;-68
2021/03/11 04:32:17;;;;;;;12.13;10.48;;;7.50;99.90;;;;;;5108618;28;20545;-69
2021/03/11 04:34:42;;;;;;;11.90;9.27;;;7.50;99.90;;;;;;5106440;28;20062;-68
2021/03/11 04:37:08;;;;;;;11.75;9.57;;;7.50;99.90;;;;;;5106387;28;20477;-68
2021/03/11 04:39:36;;;;;;;11.32;9.27;;;7.50;99.90;;;;;;5107701;28;20401;-68
2021/03/11 04:42:02;;;;;;;13.60;9.32;;;7.60;99.90;;;;;;5102936;28;20028;-69
2021/03/11 04:44:28;;;;;;;9.60;8.55;;;7.60;99.90;;;;;;5104917;28;20046;-69
2021/03/11 04:46:55;;;;;;;11.02;9.25;;;7.60;99.90;;;;;;5110202;28;20489;-68
2021/03/11 04:49:23;;;;;;;9.98;8.75;;;7.70;99.90;;;;;;5104758;28;20390;-69
2021/03/11 04:51:50;;;;;;;10.85;8.80;;;7.70;99.90;;;;;;5107419;28;20071;-69
2021/03/11 04:54:18;;;;;;;10.27;8.93;;;7.70;99.90;;;;;;5104600;28;20494;-68
2021/03/11 04:56:43;;;;;;;9.38;8.38;;;7.80;99.90;;;;;;5104808;28;20383;-68
2021/03/11 04:59:10;;;;;;;10.25;8.60;;;7.80;99.90;;;;;;5086471;28;20046;-68
2021/03/11 05:01:40;;;;;;;10.85;9.18;;;7.80;99.90;;;;;;5103856;28;20047;-69
2021/03/11 05:04:07;;;;;;;9.55;8.38;;;7.90;99.90;;;;;;5110592;28;20036;-69
2021/03/11 05:06:33;;;;;;;10.02;8.68;;;7.90;99.90;;;;;;5104221;28;20035;-69
2021/03/11 05:08:59;;;;;;;10.05;7.97;;;7.90;99.90;;;;;;5104993;28;20047;-69
2021/03/11 05:11:24;;;;;;;8.73;7.82;;;7.90;99.90;;;;;;5107993;28;20036;-69
2021/03/11 05:13:51;;;;;;;11.02;8.75;;;7.90;99.90;;;;;;5108376;28;20051;-69
2021/03/11 05:16:16;;;;;;;9.95;8.73;;;8.00;99.90;;;;;;5108933;28;20095;-69
2021/03/11 05:18:44;;;;;;;10.77;8.63;;;8.00;99.90;;;;;;5106108;28;20031;-69
2021/03/11 05:21:09;;;;;;;9.57;8.40;;;8.00;99.90;;;;;;5102623;28;20121;-69
2021/03/11 05:23:35;;;;;;;9.45;8.50;;;8.00;99.90;;;;;;5107288;28;20470;-69
2021/03/11 05:26:01;;;;;;;10.63;8.75;;;8.10;99.90;;;;;;5109136;28;20448;-69
2021/03/11 05:28:27;;;;;;;10.75;8.65;;;8.00;99.90;;;;;;5092225;28;20035;-69
2021/03/11 05:30:53;;;;;;;9.52;8.52;;;8.10;99.90;;;;;;5090566;28;20044;-69
2021/03/11 05:33:18;;;;;;;12.02;9.32;;;8.20;99.90;;;;;;5105736;28;20047;-69
2021/03/11 05:35:44;;;;;;;11.82;8.93;;;8.10;99.90;;;;;;5101928;28;20036;-69
2021/03/11 05:38:10;;;;;;;11.13;8.73;;;8.20;99.90;;;;;;5088155;28;20094;-69
2021/03/11 05:40:37;;;;;;;11.52;9.18;;;8.20;99.90;;;;;;5109722;28;20508;-69
2021/03/11 05:43:04;;;;;;;13.75;8.50;;;8.20;99.90;;;;;;5105796;28;20112;-69
2021/03/11 05:45:31;;;;;;;13.00;8.82;;;8.30;99.90;;;;;;5103691;28;20036;-69
2021/03/11 05:47:58;;;;;;;11.10;9.23;;;8.30;99.90;;;;;;5100065;28;20113;-69
2021/03/11 05:50:24;;;;;;;12.10;8.90;;;8.30;99.90;;;;;;5104978;28;20474;-69
2021/03/11 05:52:51;;;;;;;11.38;10.13;;;8.30;99.90;;;;;;5100184;28;20118;-69
2021/03/11 05:55:19;;;;;;;13.48;10.55;;;8.40;99.90;;;;;;5102925;28;20034;-69
2021/03/11 05:57:47;;;;;;;12.15;10.45;;;8.40;99.90;;;;;;5102274;28;20042;-69
2021/03/11 06:00:16;;;;;;;14.23;10.52;;;8.40;99.90;;;;;;5096128;28;20691;-69
2021/03/11 06:02:45;;;;;;;12.77;10.25;;;8.40;99.90;;;;;;5101072;28;20036;-69
2021/03/11 06:05:14;;;;;;;13.88;11.32;;;8.40;99.90;;;;;;5099451;28;20051;-69
2021/03/11 06:07:44;;;;;;;15.52;11.15;;;8.40;99.90;;;;;;5103698;28;20133;-69
2021/03/11 06:10:12;;;;;;;14.90;11.35;;;8.40;99.90;;;;;;5101287;28;20066;-69
2021/03/11 06:12:38;;;;;;;12.70;10.65;;;8.40;99.90;;;;;;5098921;28;20043;-69
2021/03/11 06:15:35;;;;;;;17.63;11.45;;;8.40;99.90;;;;;;5075077;28;20061;-69
2021/03/11 06:18:07;;;;;;;13.52;11.48;;;8.40;99.90;;;;;;5094929;28;20039;-69
2021/03/11 06:20:34;;;;;;;12.75;11.05;;;8.40;99.90;;;;;;5079055;28;20766;-69
2021/03/11 06:23:00;;;;;;;12.77;10.45;;;8.40;99.90;;;;;;5097190;28;20043;-69
2021/03/11 06:25:27;;;;;;;12.13;10.68;;;8.60;99.90;;;;;;5098428;28;20031;-69
2021/03/11 06:27:53;;;;;;;15.80;11.65;;;8.50;99.90;;;;;;5101903;28;20410;-69
2021/03/11 06:30:30;;;;;;;15.27;11.55;;;8.40;99.90;;;;;;5083495;28;20048;-69
2021/03/11 06:32:56;;;;;;;14.55;11.05;;;8.50;99.90;;;;;;5100130;28;20046;-69
2021/03/11 06:35:22;;;;;;;14.85;11.00;;;8.50;99.90;;;;;;5092465;28;20043;-69
2021/03/11 06:37:48;;;;;;;17.55;11.30;;;8.50;99.90;;;;;;5093118;28;20108;-69
2021/03/11 06:40:17;;;;;;;13.85;11.50;;;8.60;99.90;;;;;;5108228;28;20039;-69
2021/03/11 06:42:43;;;;;;;11.10;9.63;;;8.60;99.90;;;;;;5106046;28;20138;-69
2021/03/11 06:45:26;;;;;;;13.50;11.13;;;8.60;99.90;;;;;;5102594;28;20044;-69
2021/03/11 06:48:13;;;;;;;14.30;11.02;;;8.70;99.90;;;;;;5098854;28;20876;-69
2021/03/11 06:50:38;;;;;;;;;;;8.70;99.90;;;;;;5101318;28;20035;-69
2021/03/11 06:53:04;;;;;;;10.57;8.27;;;8.80;99.90;;;;;;5102026;28;19926;-69
2021/03/11 06:55:31;;;;;;;13.38;8.52;;;8.90;99.90;;;;;;5096327;28;20441;-69
2021/03/11 06:58:17;;;;;;;12.63;8.38;;;9.00;99.90;;;;;;5102676;28;20044;-69
2021/03/11 07:00:44;;;;;;;10.15;7.47;;;9.00;99.90;;;;;;5094381;28;20052;-69
2021/03/11 07:03:10;;;;;;;11.93;7.07;;;9.20;99.90;;;;;;5101505;28;20561;-69
2021/03/11 07:05:44;;;;;;;10.20;7.80;;;9.20;99.90;;;;;;5100076;28;20032;-69
2021/03/11 07:08:16;;;;;;;10.82;7.57;;;9.30;99.90;;;;;;5100047;28;20497;-68
2021/03/11 07:10:43;;;;;;;15.73;6.78;;;9.50;99.90;;;;;;5082558;28;20036;-68
2021/03/11 07:13:09;;;;;;;8.85;6.78;;;9.50;99.90;;;;;;5105157;28;20071;-69
2021/03/11 07:15:38;;;;;;;12.98;6.50;;;9.60;99.90;;;;;;5107747;28;20031;-69
2021/03/11 07:18:19;;;;;;;10.27;7.63;;;9.70;99.90;;;;;;5102750;28;20043;-69
2021/03/11 07:20:45;;;;;;;8.50;6.05;;;9.70;99.90;;;;;;5112771;28;20038;-69
2021/03/11 07:23:14;;;;;;;8.80;7.45;;;9.80;99.90;;;;;;5102780;28;20044;-69
2021/03/11 07:25:42;;;;;;;8.45;5.82;;;9.80;99.90;;;;;;5110902;27;20054;-69
2021/03/11 07:28:34;;;;;;;10.35;7.07;;;9.80;99.90;;;;;;5107281;27;20069;-68
2021/03/11 07:31:03;;;;;;;10.35;6.65;;;9.80;99.90;;;;;;5081067;28;20050;-69
2021/03/11 07:33:31;;;;;;;9.93;7.05;;;9.80;99.90;;;;;;5091483;27;20082;-69
2021/03/11 07:35:59;;;;;;;8.48;5.70;;;9.80;99.90;;;;;;5088111;27;20512;-69
2021/03/11 07:38:27;;;;;;;14.38;6.63;;;9.90;99.90;;;;;;5087292;27;20561;-69
2021/03/11 07:40:54;;;;;;;16.58;7.03;;;10.10;99.90;;;;;;5080665;27;20046;-69
2021/03/11 07:43:22;;;;;;;14.35;7.40;;;10.10;99.90;;;;;;5085970;27;20043;-69
2021/03/11 07:45:49;;;;;;;9.82;6.45;;;10.10;99.90;;;;;;5091183;27;20117;-69
2021/03/11 07:48:15;;;;;;;11.95;6.30;;;10.00;99.90;;;;;;5088299;28;20059;-69
2021/03/11 07:50:43;;;;;;;11.38;6.05;;;10.00;99.90;;;;;;5088681;27;20032;-69
2021/03/11 07:53:10;;;;;;;11.13;6.63;;;10.00;99.90;;;;;;5069757;28;20046;-69
2021/03/11 07:55:36;;;;;;;12.23;5.90;;;10.00;99.90;;;;;;5084563;27;20056;-69
2021/03/11 07:58:08;;;;;;;12.10;6.60;;;9.90;99.90;;;;;;5088803;28;20120;-69
2021/03/11 08:00:34;;;;;;;11.98;6.50;;;9.90;99.90;;;;;;5087891;27;20071;-69
2021/03/11 08:03:21;;;;;;;14.90;6.00;;;9.90;99.90;;;;;;5089936;28;20112;-69
2021/03/11 08:05:47;;;;;;;16.83;7.18;;;9.90;99.90;;;;;;5091162;27;20119;-69
2021/03/11 08:08:18;;;;;;;15.10;5.63;;;9.90;99.90;;;;;;5091107;28;20063;-69
2021/03/11 08:10:59;;;;;;;11.52;5.60;;;10.00;99.80;;;;;;5087170;27;20070;-69
2021/03/11 08:13:41;;;;;;;10.50;5.38;;;10.00;99.70;;;;;;5089456;28;20047;-69
2021/03/11 08:16:10;;;;;;;13.02;5.20;;;10.00;99.40;;;;;;5086489;28;20121;-69
2021/03/11 08:18:36;;;;;;;8.80;4.10;;;10.10;99.30;;;;;;5095163;28;20053;-69
2021/03/11 08:21:06;;;;;;;17.23;5.40;;;10.20;99.00;;;;;;5087615;28;20046;-69
2021/03/11 08:23:31;;;;;;;18.17;5.40;;;10.20;97.90;;;;;;5082927;28;20044;-69
2021/03/11 08:25:58;;;;;;;18.23;5.22;;;10.20;97.60;;;;;;5090710;28;20048;-69
2021/03/11 08:28:30;;;;;;;17.90;4.72;;;10.30;97.40;;;;;;5088435;27;20044;-69
2021/03/11 08:31:04;;;;;;;20.85;4.63;;;10.30;96.90;;;;;;5084815;27;20066;-69
2021/03/11 08:33:33;;;;;;;25.00;5.38;;;10.40;96.10;;;;;;5090349;28;20045;-69
2021/03/11 08:36:00;;;;;;;31.35;6.10;;;10.50;95.40;;;;;;5091750;28;20043;-69
2021/03/11 08:38:32;;;;;;;36.50;8.20;;;10.50;95.30;;;;;;5088317;28;20077;-69
2021/03/11 08:41:03;;;;;;;34.63;6.18;;;10.50;94.80;;;;;;5083698;28;20032;-69
2021/03/11 08:43:35;;;;;;;32.47;7.25;;;10.50;94.70;;;;;;5069554;28;20044;-68
2021/03/11 08:46:14;;;;;;;31.58;6.78;;;10.50;94.90;;;;;;5085108;28;20097;-69
2021/03/11 08:49:00;;;;;;;32.88;7.25;;;10.50;94.30;;;;;;5086514;28;21998;-69
2021/03/11 08:51:26;;;;;;;35.95;5.82;;;10.50;94.50;;;;;;5086696;28;20032;-68
2021/03/11 08:53:52;;;;;;;38.58;6.30;;;10.40;94.00;;;;;;5086410;27;20042;-69
2021/03/11 08:56:18;;;;;;;32.53;6.55;;;10.50;94.10;;;;;;5088280;28;20039;-68
2021/03/11 08:58:58;;;;;;;30.50;6.47;;;10.70;93.80;;;;;;5087636;27;20063;-69
2021/03/11 09:01:33;;;;;;;29.60;6.30;;;10.70;93.30;;;;;;5086733;28;20782;-68
2021/03/11 09:03:59;;;;;;;30.70;7.40;;;10.70;93.70;;;;;;5087462;27;20048;-69
2021/03/11 09:07:03;;;;;;;36.53;7.18;;;10.70;93.40;;;;;;5084489;28;20067;-69
2021/03/11 09:09:41;;;;;;;31.13;6.40;;;10.70;93.90;;;;;;5087615;28;20039;-69
2021/03/11 09:12:09;;;;;;;34.55;6.70;;;10.70;93.80;;;;;;5088349;27;20734;-69
2021/03/11 09:14:35;;;;;;;29.80;5.72;;;10.70;93.90;;;;;;5091236;27;20504;-68
2021/03/11 09:17:02;;;;;;;32.42;6.45;;;10.80;93.10;;;;;;5088873;27;20052;-68
2021/03/11 09:20:03;;;;;;;24.33;5.82;;;10.80;93.40;;;;;;5086907;28;20043;-68
2021/03/11 09:22:41;;;;;;;29.50;6.10;;;10.80;93.60;;;;;;5071055;28;20048;-68
2021/03/11 09:25:10;;;;;;;36.72;6.13;;;10.70;92.70;;;;;;5083138;28;20043;-69
2021/03/11 09:27:38;;;;;;;33.10;6.35;;;10.70;92.90;;;;;;5082833;28;20032;-69
2021/03/11 09:30:10;;;;;;;32.60;7.32;;;10.70;93.10;;;;;;5083895;27;21833;-69
2021/03/11 09:32:37;;;;;;;26.02;5.78;;;10.70;92.60;;;;;;5082434;28;20040;-69
2021/03/11 09:35:09;;;;;;;29.95;6.53;;;10.70;93.50;;;;;;5087878;28;20039;-69
2021/03/11 09:37:56;;;;;;;25.60;6.13;;;10.70;92.40;;;;;;5084708;27;20044;-69
2021/03/11 09:40:36;;;;;;;35.35;7.30;;;10.70;93.00;;;;;;5085835;28;20036;-69
2021/03/11 09:43:21;;;;;;;41.55;7.47;;;10.70;92.70;;;;;;5080042;28;20040;-69
2021/03/11 09:46:00;;;;;;;46.60;8.60;;;10.70;92.90;;;;;;5081387;27;20391;-69
2021/03/11 09:48:30;;;;;;;34.03;6.80;;;10.80;91.90;;;;;;5079252;27;20039;-69
2021/03/11 09:51:16;;;;;;;30.10;6.30;;;10.80;92.10;;;;;;5078994;27;20489;-69
2021/03/11 09:53:57;;;;;;;32.70;7.07;;;10.90;92.30;;;;;;5079844;27;20040;-69
2021/03/11 09:56:31;;;;;;;33.13;6.22;;;11.00;91.90;;;;;;5072160;28;20115;-69
2021/03/11 09:59:02;;;;;;;32.58;7.25;;;11.00;91.20;;;;;;5085956;28;20071;-69
2021/03/11 10:01:46;;;;;;;29.90;6.03;;;11.00;91.30;;;;;;5082556;28;20040;-69
2021/03/11 10:04:12;;;;;;;36.88;8.93;;;11.00;91.40;;;;;;5087169;27;20719;-69
2021/03/11 10:06:47;;;;;;;35.35;6.18;;;10.90;91.00;;;;;;5087308;28;20211;-69
2021/03/11 10:09:13;;;;;;;32.72;7.20;;;10.80;91.20;;;;;;5081873;28;20032;-69
2021/03/11 10:11:53;;;;;;;35.38;7.00;;;10.90;90.70;;;;;;5083415;28;20047;-69
2021/03/11 10:14:22;;;;;;;38.85;6.53;;;10.80;91.40;;;;;;5087263;27;20759;-69
2021/03/11 10:16:49;;;;;;;33.88;6.95;;;10.80;91.60;;;;;;5083534;28;20038;-69
2021/03/11 10:19:27;;;;;;;43.75;7.32;;;10.80;91.70;;;;;;5088698;28;20928;-69
2021/03/11 10:22:04;;;;;;;43.00;6.72;;;10.80;92.20;;;;;;5084077;28;20577;-69
2021/03/11 10:24:36;;;;;;;36.38;7.15;;;10.70;93.00;;;;;;5079887;28;20043;-69
2021/03/11 10:27:03;;;;;;;36.92;7.60;;;10.70;93.40;;;;;;5084760;28;20127;-69
2021/03/11 10:29:32;;;;;;;36.72;8.50;;;10.60;94.00;;;;;;5063999;28;20035;-69
2021/03/11 10:32:03;;;;;;;32.53;7.47;;;10.40;94.50;;;;;;5085232;28;20064;-69
2021/03/11 10:34:29;;;;;;;40.60;8.65;;;10.30;94.40;;;;;;5084615;28;20047;-68
2021/03/11 10:36:59;;;;;;;37.28;8.23;;;10.20;95.90;;;;;;5081860;28;20040;-68
2021/03/11 10:39:26;;;;;;;36.80;6.60;;;10.10;96.20;;;;;;5083429;28;20145;-68
2021/03/11 10:42:00;;;;;;;37.95;7.60;;;9.90;96.70;;;;;;5084728;28;20047;-68
2021/03/11 10:44:27;;;;;;;37.15;6.97;;;9.70;97.40;;;;;;5083480;28;20557;-68
2021/03/11 10:47:10;;;;;;;41.90;8.05;;;9.60;97.60;;;;;;5085588;28;20039;-68
2021/03/11 10:49:38;;;;;;;40.83;7.30;;;9.60;97.70;;;;;;5084240;28;20103;-68
2021/03/11 10:52:03;;;;;;;36.70;7.45;;;9.50;98.30;;;;;;5082914;28;20036;-68
2021/03/11 10:54:30;;;;;;;36.60;7.03;;;9.50;98.20;;;;;;5087453;28;20059;-69
2021/03/11 10:57:13;;;;;;;47.92;8.68;;;9.40;99.10;;;;;;5087455;28;20043;-68
2021/03/11 10:59:59;;;;;;;31.40;7.18;;;9.30;99.20;;;;;;5088138;28;20039;-69
2021/03/11 11:02:27;;;;;;;37.63;9.33;;;9.30;99.00;;;;;;5096307;28;20031;-69
2021/03/11 11:04:53;;;;;;;34.72;7.50;;;9.20;99.30;;;;;;5108069;27;20052;-69
2021/03/11 11:07:19;;;;;;;38.58;6.93;;;9.10;99.80;;;;;;5111084;27;20081;-69
2021/03/11 11:09:46;;;;;;;38.33;8.20;;;9.10;99.90;;;;;;5103723;28;20115;-69
2021/03/11 11:12:15;;;;;;;37.47;6.32;;;9.00;99.90;;;;;;5108429;27;20048;-69
2021/03/11 11:14:42;;;;;;;35.35;7.38;;;9.00;99.90;;;;;;5112378;28;20040;-69
2021/03/11 11:17:08;;;;;;;33.38;6.97;;;9.00;99.90;;;;;;5101812;28;20050;-69
2021/03/11 11:19:34;;;;;;;33.65;5.70;;;9.00;99.90;;;;;;5099964;28;20043;-69
2021/03/11 11:22:01;;;;;;;35.50;5.78;;;8.90;99.90;;;;;;5107600;28;20031;-69
2021/03/11 11:24:26;;;;;;;40.10;7.15;;;8.90;99.90;;;;;;5110465;27;20394;-69
2021/03/11 11:26:56;;;;;;;28.10;6.82;;;8.90;99.90;;;;;;5110702;27;20050;-69
2021/03/11 11:29:25;;;;;;;35.08;6.57;;;8.90;99.90;;;;;;5111622;27;20107;-69
2021/03/11 11:31:52;;;;;;;36.13;6.70;;;8.90;99.90;;;;;;5103282;27;20028;-69
2021/03/11 11:34:19;;;;;;;39.80;7.85;;;8.90;99.90;;;;;;5109219;28;20047;-69
2021/03/11 11:36:46;;;;;;;42.03;7.28;;;8.80;99.90;;;;;;5111750;27;20032;-69
2021/03/11 11:39:13;;;;;;;31.15;5.45;;;8.80;99.90;;;;;;5103176;28;20036;-69
2021/03/11 11:53:48;;;;;;;35.50;6.47;;;8.90;99.90;;;;;;5093442;27;20525;-69
2021/03/11 11:56:14;;;;;;;36.45;6.38;;;8.70;99.90;;;;;;5105084;28;20036;-69
2021/03/11 11:58:44;;;;;;;31.33;5.85;;;8.70;99.90;;;;;;5104058;28;20043;-69
2021/03/11 12:01:11;;;;;;;26.02;6.13;;;8.60;99.90;;;;;;5100927;28;20096;-69
2021/03/11 12:03:37;;;;;;;36.05;5.88;;;8.60;99.90;;;;;;5096495;28;20042;-69
2021/03/11 12:06:03;;;;;;;32.75;7.43;;;8.60;99.90;;;;;;5095134;28;20028;-69
2021/03/11 12:08:29;;;;;;;37.17;7.65;;;8.60;99.90;;;;;;5094199;28;20865;-69
2021/03/11 12:10:55;;;;;;;39.15;7.05;;;8.60;99.90;;;;;;5097820;28;20112;-69
2021/03/11 12:13:21;;;;;;;43.25;6.82;;;8.60;99.90;;;;;;5103171;28;20032;-69
2021/03/11 12:15:47;;;;;;;40.08;6.85;;;8.50;99.90;;;;;;5104228;28;20210;-69
2021/03/11 12:18:14;;;;;;;37.17;7.32;;;8.50;99.90;;;;;;5103808;28;20130;-69
2021/03/11 12:20:40;;;;;;;42.00;7.38;;;8.50;99.90;;;;;;5102884;28;20402;-69
2021/03/11 12:23:06;;;;;;;46.75;8.18;;;8.60;99.90;;;;;;5094256;28;20039;-69
2021/03/11 12:25:34;;;;;;;45.78;8.30;;;8.50;99.90;;;;;;5088665;28;20121;-69
2021/03/11 12:28:00;;;;;;;42.45;8.45;;;8.60;99.90;;;;;;5074201;28;20491;-69
2021/03/11 12:30:26;;;;;;;45.90;7.68;;;8.60;99.90;;;;;;5093274;28;20387;-70
2021/03/11 12:32:52;;;;;;;38.40;7.70;;;8.60;99.90;;;;;;5088565;28;20047;-70
2021/03/11 12:35:18;;;;;;;43.25;7.90;;;8.60;99.90;;;;;;5077410;28;20042;-70
2021/03/11 12:37:44;;;;;;;42.72;7.45;;;8.70;99.90;;;;;;5073921;28;20036;-69
2021/03/11 12:40:11;;;;;;;35.75;7.22;;;8.80;99.90;;;;;;5091785;28;20048;-70
2021/03/11 12:42:36;;;;;;;39.45;7.57;;;8.80;99.90;;;;;;5091306;28;20036;-70
2021/03/11 12:45:23;;;;;;;41.63;6.85;;;8.80;99.90;;;;;;5092445;28;20047;-69
2021/03/11 12:47:49;;;;;;;44.00;7.05;;;8.90;99.90;;;;;;5098305;28;20028;-69
2021/03/11 12:50:16;;;;;;;39.40;7.38;;;8.90;99.90;;;;;;5100808;28;20056;-69
2021/03/11 12:52:42;;;;;;;37.45;6.93;;;9.00;99.90;;;;;;5091389;28;20036;-70
2021/03/11 12:55:09;;;;;;;40.08;7.40;;;9.00;99.90;;;;;;5090786;28;20092;-70
2021/03/11 12:57:35;;;;;;;35.60;6.53;;;9.00;99.90;;;;;;5090011;28;20444;-70
2021/03/11 13:00:03;;;;;;;44.08;6.97;;;9.00;99.90;;;;;;5091373;28;20035;-70
2021/03/11 13:02:29;;;;;;;41.25;6.70;;;9.00;99.90;;;;;;5090463;28;20040;-70